Airfield :
LOGIN :

Register | Disclaimer

   EN    FR    IT 

 










Legend :    VFR   Marginal VFR   IFR   Intensive IFR   Very Intensive IFR
Visi :
Ceiling :
>= 8 km
>= 3000ft
5 to 8 km
1000 to 3000 ft
1500m to 5 km
500 to 1000 ft
800 to 1500m
200 to 500 ft
< 800m
< 200 ft
Symbols :   Thunderstorms  Fog  Heavy snow  Heavy precipitations  Wind > 20 kt
SIGMETs :     Misc.  Thunderstorms  Icing  Turbulence  Mountain Waves  Volcanic Ashes






- Airport Elevation : 15 ft
- IATA code : BHD


EGAC - George Best Belfast City

CURRENT METAR :
  • 031750Z AUTO 27007KT 240V310 9999 NCD 10/05 Q1014

EXPIRED METARs :
  • 031720Z AUTO 25007KT 220V280 9999 FEW033/// 11/05 Q1014
  • 031650Z AUTO 27005KT 9999 NCD 10/05 Q1014
  • 031620Z AUTO 26007KT 230V290 9999 -RA BKN038/// 10/06 Q1014
  • 031550Z AUTO 26011KT 200V290 9999 BKN049/// 11/05 Q1014
  • 031520Z AUTO 23010KT 9999 BKN041/// 10/06 Q1014

TAF TAF EGAC
Valid from the 03 at 18:00 until the 03 at 21:00 UTC


031658Z 0318/0321 24010KT 9999 SCT045
PROB30
TEMPO 0318/0320 9000 -SHRA
ATIS : +44 02890 935 124



MET'MAP, your aeronautical weather chart ! - Copyright ORBIFLY December 2007 - Disclaimer

ORBIFLY MET'MAP TEAM :

Programming & Development : Alexandra Zaïnal
Concept & original design : Baudouin d'Aumeries
Assistance for programming : Marc-Olivier Méhu
Technical & hardware support : Manuel Goepfert

Contact : metmap@orbifly.com




SOURCES & CREDITS :

   NOAA